createdAt,value
2023-01-31T00:01:10.470Z,93.11
2023-01-31T00:02:12.055Z,92.96
2023-01-31T00:03:13.680Z,92.84
2023-01-31T00:04:15.210Z,92.71
2023-01-31T00:05:17.863Z,92.23
2023-01-31T00:06:22.178Z,92.28
2023-01-31T00:07:23.754Z,92.33
2023-01-31T00:08:25.395Z,92.54
2023-01-31T00:09:27.129Z,92.98
2023-01-31T00:10:28.716Z,93.79
2023-01-31T00:11:31.280Z,93.12
2023-01-31T00:12:32.861Z,93.46
2023-01-31T00:13:34.928Z,93.32
2023-01-31T00:14:36.481Z,92.79
2023-01-31T00:15:38.331Z,92.26
2023-01-31T00:16:40.440Z,92.38
2023-01-31T00:17:42.491Z,91.74
2023-01-31T00:18:44.739Z,92.31
2023-01-31T00:19:46.230Z,92.63
2023-01-31T00:20:48.084Z,93.20
2023-01-31T00:21:49.633Z,93.00
2023-01-31T00:22:51.142Z,92.72
2023-01-31T00:23:53.845Z,92.63
2023-01-31T00:24:55.379Z,92.37
2023-01-31T00:26:09.369Z,92.01
2023-01-31T00:27:10.938Z,91.77
2023-01-31T00:28:12.474Z,92.10
2023-01-31T00:29:14.095Z,91.63
2023-01-31T00:30:16.183Z,91.41
2023-01-31T00:31:19.376Z,91.13
2023-01-31T00:32:21.034Z,90.58
2023-01-31T00:33:23.366Z,89.94
2023-01-31T00:34:24.890Z,89.80
2023-01-31T00:35:26.701Z,89.22
2023-01-31T00:36:33.808Z,88.12
2023-01-31T00:37:35.818Z,88.45
2023-01-31T00:38:38.865Z,88.43
2023-01-31T00:39:40.410Z,87.97
2023-01-31T00:40:41.905Z,88.31
2023-01-31T00:41:43.447Z,88.00
2023-01-31T00:42:45.141Z,87.23
2023-01-31T00:43:46.772Z,87.81
2023-01-31T00:44:48.298Z,87.53
2023-01-31T00:45:49.879Z,87.03
2023-01-31T00:46:51.489Z,86.82
2023-01-31T00:47:53.032Z,87.30
2023-01-31T00:48:56.298Z,87.93
2023-01-31T00:49:57.853Z,89.22
2023-01-31T00:50:59.453Z,91.39
2023-01-31T00:52:01.022Z,93.21
2023-01-31T00:53:03.131Z,94.30
2023-01-31T00:54:04.749Z,94.82
2023-01-31T00:55:06.426Z,95.95
2023-01-31T00:56:10.734Z,97.52
2023-01-31T00:57:12.283Z,98.81
2023-01-31T00:58:13.797Z,99.50
2023-01-31T00:59:15.577Z,99.21
2023-01-31T01:00:17.702Z,97.89
2023-01-31T01:01:22.269Z,97.01
2023-01-31T01:02:23.797Z,96.13
2023-01-31T01:03:25.399Z,94.99
2023-01-31T01:04:26.952Z,95.56
2023-01-31T01:05:28.526Z,94.81
2023-01-31T01:06:30.105Z,94.40
2023-01-31T01:07:31.600Z,93.62
2023-01-31T01:08:34.728Z,93.58
2023-01-31T01:09:36.916Z,92.94
2023-01-31T01:10:38.604Z,92.97
2023-01-31T01:11:40.152Z,92.84
2023-01-31T01:12:41.694Z,93.36
2023-01-31T01:13:44.325Z,93.74
2023-01-31T01:14:45.881Z,93.02
2023-01-31T01:15:47.605Z,93.42
2023-01-31T01:16:49.939Z,93.32
2023-01-31T01:17:51.600Z,92.83
2023-01-31T01:18:55.183Z,93.49
2023-01-31T01:19:56.868Z,93.50
2023-01-31T01:21:05.667Z,93.13
2023-01-31T01:22:07.218Z,93.08
2023-01-31T01:23:08.860Z,93.16
2023-01-31T01:24:19.519Z,92.42
2023-01-31T01:25:21.554Z,91.90
2023-01-31T01:26:28.933Z,92.23
2023-01-31T01:27:30.516Z,92.27
2023-01-31T01:28:35.616Z,91.89
2023-01-31T01:29:38.115Z,92.33
2023-01-31T01:30:39.918Z,92.60
2023-01-31T01:31:41.555Z,92.14
2023-01-31T01:32:43.200Z,92.02
2023-01-31T01:33:45.621Z,91.10
2023-01-31T01:34:47.557Z,90.86
2023-01-31T01:35:49.090Z,90.75
2023-01-31T01:36:50.643Z,90.83
2023-01-31T01:37:52.264Z,90.44
2023-01-31T01:38:54.317Z,90.07
2023-01-31T01:39:55.927Z,89.97
2023-01-31T01:40:57.479Z,89.80
2023-01-31T01:41:59.053Z,88.74
2023-01-31T01:43:00.553Z,87.74
2023-01-31T01:44:05.433Z,88.08
2023-01-31T01:45:15.978Z,87.80
2023-01-31T01:46:25.352Z,87.78
2023-01-31T01:47:44.767Z,87.47
2023-01-31T01:48:50.387Z,86.93
2023-01-31T01:49:59.849Z,86.32
2023-01-31T01:51:03.590Z,85.70
2023-01-31T01:52:08.851Z,85.42
2023-01-31T01:53:15.212Z,85.67
2023-01-31T01:54:22.433Z,85.46
2023-01-31T01:55:34.019Z,85.21
2023-01-31T01:56:41.031Z,85.15
2023-01-31T01:57:45.302Z,84.69
2023-01-31T01:59:01.575Z,84.66
2023-01-31T02:00:09.294Z,84.85
2023-01-31T02:01:13.788Z,85.53
2023-01-31T02:02:15.905Z,85.98
2023-01-31T02:03:18.021Z,85.20
2023-01-31T02:04:22.590Z,84.46
2023-01-31T02:05:31.042Z,84.40
2023-01-31T02:06:33.015Z,83.69
2023-01-31T02:07:34.705Z,84.05
2023-01-31T02:08:39.324Z,84.07
2023-01-31T02:10:03.059Z,84.33
2023-01-31T02:11:28.485Z,84.65
2023-01-31T02:12:31.975Z,85.08
2023-01-31T02:13:35.948Z,86.62
2023-01-31T02:14:37.500Z,86.73
2023-01-31T02:15:39.111Z,87.57
2023-01-31T02:16:41.820Z,88.55
2023-01-31T02:17:43.536Z,89.49
2023-01-31T02:18:46.050Z,89.07
2023-01-31T02:20:08.558Z,89.21
2023-01-31T02:21:28.675Z,89.34
2023-01-31T02:22:59.189Z,90.03
2023-01-31T02:24:22.423Z,90.17
2023-01-31T02:25:32.962Z,89.83
2023-01-31T02:27:02.324Z,90.48
2023-01-31T02:28:16.047Z,96.01
2023-01-31T02:29:42.712Z,94.18
2023-01-31T02:31:11.503Z,91.79
2023-01-31T02:32:25.027Z,90.66
2023-01-31T02:33:31.042Z,89.90
2023-01-31T02:34:49.433Z,89.81
2023-01-31T02:35:50.993Z,89.79
2023-01-31T02:37:01.518Z,89.40
2023-01-31T02:38:35.900Z,89.53
2023-01-31T02:39:53.154Z,89.74
2023-01-31T02:41:35.172Z,90.13
2023-01-31T02:42:39.323Z,90.73
2023-01-31T02:44:16.401Z,90.88
2023-01-31T02:45:42.418Z,91.23
2023-01-31T02:46:50.520Z,91.26
2023-01-31T02:48:03.065Z,91.90
2023-01-31T02:49:16.067Z,92.89
2023-01-31T02:50:31.078Z,92.66
2023-01-31T02:51:41.345Z,93.75
2023-01-31T02:52:49.737Z,93.66
2023-01-31T02:53:58.644Z,94.67
2023-01-31T02:55:33.903Z,94.57
2023-01-31T02:56:39.306Z,94.47
2023-01-31T02:57:44.010Z,94.89
2023-01-31T02:58:49.573Z,94.00
2023-01-31T02:59:51.584Z,94.75
2023-01-31T03:00:57.796Z,94.62
2023-01-31T03:02:02.416Z,94.19
2023-01-31T03:03:13.021Z,93.65
2023-01-31T03:04:15.070Z,93.82
2023-01-31T03:05:19.108Z,93.99
2023-01-31T03:06:24.166Z,93.59
2023-01-31T03:07:33.677Z,93.98
2023-01-31T03:08:36.613Z,93.51
2023-01-31T03:10:03.155Z,93.52
2023-01-31T03:11:07.753Z,93.28
2023-01-31T03:12:12.079Z,93.17
2023-01-31T03:13:36.717Z,92.96
2023-01-31T03:14:56.258Z,92.40
2023-01-31T03:16:32.930Z,91.69
2023-01-31T03:17:47.722Z,91.60
2023-01-31T03:19:01.297Z,91.00
2023-01-31T03:20:29.279Z,90.69
2023-01-31T03:21:37.013Z,91.24
2023-01-31T03:22:50.169Z,90.34
2023-01-31T03:23:55.691Z,90.64
2023-01-31T03:24:59.343Z,90.73
2023-01-31T03:26:04.345Z,90.55
2023-01-31T03:27:06.146Z,89.77
2023-01-31T03:28:14.972Z,89.76
2023-01-31T03:29:17.713Z,90.23
2023-01-31T03:30:30.726Z,90.19
2023-01-31T03:31:42.656Z,90.25
2023-01-31T03:32:59.763Z,90.06
2023-01-31T03:34:05.562Z,90.09
2023-01-31T03:35:08.113Z,89.59
2023-01-31T03:36:17.855Z,89.61
2023-01-31T03:37:37.542Z,88.69
2023-01-31T03:38:58.621Z,88.95
2023-01-31T03:40:17.599Z,88.62
2023-01-31T03:41:30.462Z,87.99
2023-01-31T03:42:46.263Z,89.17
2023-01-31T03:43:54.334Z,90.60
2023-01-31T03:45:04.153Z,90.70
2023-01-31T03:46:11.698Z,91.45
2023-01-31T03:47:25.950Z,92.51
2023-01-31T03:48:33.253Z,92.36
2023-01-31T03:49:35.909Z,92.01
2023-01-31T03:50:44.590Z,90.95
2023-01-31T03:51:51.231Z,90.81
2023-01-31T03:53:00.345Z,89.84
2023-01-31T03:54:07.429Z,89.52
2023-01-31T03:55:48.642Z,89.37
2023-01-31T03:56:58.533Z,88.52
2023-01-31T03:58:02.933Z,88.68
2023-01-31T03:59:28.032Z,88.28
2023-01-31T04:00:30.217Z,88.59
2023-01-31T04:01:37.274Z,88.65
2023-01-31T04:02:41.428Z,89.67
2023-01-31T04:03:47.598Z,89.68
2023-01-31T04:05:00.907Z,89.75
2023-01-31T04:06:02.767Z,90.17
2023-01-31T04:07:06.011Z,91.19
2023-01-31T04:08:07.874Z,91.49
2023-01-31T04:09:09.560Z,91.31
2023-01-31T04:10:17.647Z,90.66
2023-01-31T04:11:22.042Z,90.20
2023-01-31T04:12:23.954Z,89.75
2023-01-31T04:13:25.610Z,89.19
2023-01-31T04:14:27.534Z,88.86
2023-01-31T04:15:29.205Z,88.67
2023-01-31T04:16:30.797Z,88.19
2023-01-31T04:17:33.301Z,87.45
2023-01-31T04:18:37.455Z,87.14
2023-01-31T04:19:39.997Z,86.56
2023-01-31T04:20:41.482Z,86.86
2023-01-31T04:21:43.008Z,87.45
2023-01-31T04:22:44.539Z,88.15
2023-01-31T04:23:46.091Z,88.34
2023-01-31T04:24:47.627Z,88.96
2023-01-31T04:25:49.121Z,88.85
2023-01-31T04:26:50.808Z,88.69
2023-01-31T04:27:52.378Z,89.46
2023-01-31T04:28:53.965Z,90.14
2023-01-31T04:29:55.537Z,90.23
2023-01-31T04:30:57.843Z,90.60
2023-01-31T04:31:59.489Z,90.61
2023-01-31T04:33:01.138Z,91.26
2023-01-31T04:34:02.740Z,91.13
2023-01-31T04:35:04.870Z,90.97
2023-01-31T04:36:07.016Z,90.73
2023-01-31T04:37:08.845Z,91.01
2023-01-31T04:38:10.397Z,91.06
2023-01-31T04:39:13.707Z,90.57
2023-01-31T04:40:15.314Z,90.36
2023-01-31T04:41:16.872Z,90.21
2023-01-31T04:42:18.392Z,89.75
2023-01-31T04:43:19.946Z,89.83
2023-01-31T04:44:21.845Z,90.51
2023-01-31T04:45:25.113Z,90.04
2023-01-31T04:46:28.021Z,90.12
2023-01-31T04:47:30.663Z,89.39
2023-01-31T04:48:32.988Z,89.68
2023-01-31T04:49:34.637Z,89.89
2023-01-31T04:50:36.626Z,89.89
2023-01-31T04:51:38.245Z,89.84
2023-01-31T04:52:39.779Z,89.46
2023-01-31T04:53:44.135Z,89.12
2023-01-31T04:54:45.772Z,88.10
2023-01-31T04:55:47.299Z,87.66
2023-01-31T04:56:48.860Z,87.52
2023-01-31T04:57:50.489Z,86.95
2023-01-31T04:58:52.195Z,85.77
2023-01-31T04:59:53.762Z,86.21
2023-01-31T05:00:55.448Z,86.64
2023-01-31T05:01:57.077Z,86.76
2023-01-31T05:02:58.707Z,86.51
2023-01-31T05:04:00.266Z,86.71
2023-01-31T05:05:03.004Z,87.73
2023-01-31T05:06:04.743Z,87.49
2023-01-31T05:07:06.759Z,87.83
2023-01-31T05:08:08.359Z,87.71
2023-01-31T05:09:11.361Z,87.50
2023-01-31T05:10:13.517Z,87.39
2023-01-31T05:11:15.114Z,86.83
2023-01-31T05:12:16.659Z,86.39
2023-01-31T05:13:18.277Z,85.76
2023-01-31T05:14:21.200Z,85.89
2023-01-31T05:15:23.012Z,86.98
2023-01-31T05:16:24.766Z,85.40
2023-01-31T05:17:29.686Z,84.74
2023-01-31T05:18:31.465Z,83.82
2023-01-31T05:19:33.026Z,82.53
2023-01-31T05:20:39.888Z,82.16
2023-01-31T05:22:00.214Z,82.37
2023-01-31T05:23:02.257Z,82.09
2023-01-31T05:24:04.005Z,91.89
2023-01-31T05:25:06.061Z,95.25
2023-01-31T05:26:07.614Z,97.48
2023-01-31T05:27:10.160Z,95.27
2023-01-31T05:28:12.258Z,93.31
2023-01-31T05:29:14.434Z,91.29
2023-01-31T05:30:16.365Z,89.73
2023-01-31T05:31:18.288Z,87.83
2023-01-31T05:32:19.977Z,86.95
2023-01-31T05:33:21.600Z,84.25
2023-01-31T05:34:25.447Z,83.14
2023-01-31T05:35:27.380Z,82.36
2023-01-31T05:36:28.905Z,82.07
2023-01-31T05:37:31.375Z,81.09
2023-01-31T05:38:33.466Z,79.68
2023-01-31T05:39:35.842Z,77.78
2023-01-31T05:40:37.550Z,78.01
2023-01-31T05:41:39.106Z,78.29
2023-01-31T05:42:40.870Z,77.30
2023-01-31T05:43:42.370Z,77.75
2023-01-31T05:44:43.935Z,77.79
2023-01-31T05:45:47.658Z,77.48
2023-01-31T05:46:49.426Z,77.52
2023-01-31T05:47:50.980Z,77.42
2023-01-31T05:48:52.538Z,76.69
2023-01-31T05:49:54.039Z,76.34
2023-01-31T05:50:55.627Z,76.31
2023-01-31T05:51:57.234Z,75.75
2023-01-31T05:53:00.864Z,75.51
2023-01-31T05:54:02.932Z,75.96
2023-01-31T05:55:05.067Z,76.10
2023-01-31T05:56:07.060Z,75.82
2023-01-31T05:57:08.704Z,76.12
2023-01-31T05:58:10.299Z,76.87
2023-01-31T05:59:11.911Z,76.94
2023-01-31T06:00:14.498Z,77.11
2023-01-31T06:01:22.114Z,76.93
2023-01-31T06:02:24.466Z,77.01
2023-01-31T06:03:25.995Z,77.40
2023-01-31T06:04:27.576Z,77.72
2023-01-31T06:05:29.584Z,78.22
2023-01-31T06:06:31.209Z,78.66
2023-01-31T06:07:33.193Z,79.33
2023-01-31T06:08:34.808Z,79.22
2023-01-31T06:09:38.865Z,79.11
2023-01-31T06:10:40.465Z,79.60
2023-01-31T06:11:42.088Z,79.84
2023-01-31T06:12:43.631Z,79.59
2023-01-31T06:13:45.313Z,79.66
2023-01-31T06:14:46.836Z,79.65
2023-01-31T06:15:49.665Z,80.01
2023-01-31T06:16:51.449Z,79.75
2023-01-31T06:17:53.060Z,79.97
2023-01-31T06:18:55.716Z,80.21
2023-01-31T06:19:57.824Z,79.41
2023-01-31T06:20:59.803Z,79.58
2023-01-31T06:22:01.439Z,79.89
2023-01-31T06:23:02.971Z,80.11
2023-01-31T06:24:04.890Z,80.09
2023-01-31T06:25:06.999Z,79.99
2023-01-31T06:26:08.529Z,79.66
2023-01-31T06:27:10.126Z,78.87
2023-01-31T06:28:11.974Z,79.31
2023-01-31T06:29:13.553Z,79.09
2023-01-31T06:30:15.224Z,78.50
2023-01-31T06:31:16.901Z,78.19
2023-01-31T06:32:18.526Z,77.76
2023-01-31T06:33:20.147Z,77.54
2023-01-31T06:34:21.712Z,77.30
2023-01-31T06:35:23.249Z,77.26
2023-01-31T06:36:24.746Z,76.74
2023-01-31T06:37:26.279Z,76.62
2023-01-31T06:38:28.881Z,76.21
2023-01-31T06:39:32.827Z,76.31
2023-01-31T06:40:36.528Z,76.45
2023-01-31T06:41:38.028Z,76.25
2023-01-31T06:42:39.961Z,76.13
2023-01-31T06:43:41.542Z,75.17
2023-01-31T06:44:43.090Z,75.47
2023-01-31T06:45:44.816Z,75.53
2023-01-31T06:46:46.337Z,75.70
2023-01-31T06:47:47.889Z,75.62
2023-01-31T06:48:49.607Z,75.93
2023-01-31T06:49:51.186Z,75.16
2023-01-31T06:50:52.756Z,75.47
2023-01-31T06:51:54.475Z,75.67
2023-01-31T06:52:56.597Z,75.73
2023-01-31T06:53:58.242Z,75.37
2023-01-31T06:54:59.723Z,74.92
2023-01-31T06:56:01.686Z,75.51
2023-01-31T06:57:03.230Z,75.50
2023-01-31T06:58:04.920Z,75.26
2023-01-31T06:59:06.554Z,75.46
2023-01-31T07:00:09.053Z,75.01
2023-01-31T07:01:13.866Z,74.48
2023-01-31T07:02:16.708Z,74.79
2023-01-31T07:03:19.427Z,74.21
2023-01-31T07:04:21.077Z,75.15
2023-01-31T07:05:23.564Z,74.89
2023-01-31T07:06:25.233Z,74.70
2023-01-31T07:07:26.751Z,73.66
2023-01-31T07:08:28.429Z,73.97
2023-01-31T07:09:30.062Z,73.82
2023-01-31T07:10:31.574Z,74.31
2023-01-31T07:11:33.262Z,74.44
2023-01-31T07:12:34.824Z,73.05
2023-01-31T07:13:36.400Z,73.19
2023-01-31T07:14:37.980Z,73.55
2023-01-31T07:15:39.570Z,72.80
2023-01-31T07:16:41.221Z,73.19
2023-01-31T07:17:44.128Z,72.80
2023-01-31T07:18:45.784Z,72.64
2023-01-31T07:19:47.649Z,72.15
2023-01-31T07:20:50.498Z,71.65
2023-01-31T07:21:52.474Z,72.58
2023-01-31T07:22:58.327Z,72.84
2023-01-31T07:23:59.862Z,72.40
2023-01-31T07:25:01.452Z,71.02
2023-01-31T07:26:05.008Z,71.45
2023-01-31T07:27:06.633Z,71.79
2023-01-31T07:28:08.325Z,70.97
2023-01-31T07:29:10.265Z,71.36
2023-01-31T07:30:12.492Z,71.16
2023-01-31T07:31:15.150Z,69.79
2023-01-31T07:32:16.776Z,69.39
2023-01-31T07:33:18.445Z,70.34
2023-01-31T07:34:22.908Z,69.75
2023-01-31T07:35:24.517Z,68.56
2023-01-31T07:36:26.955Z,68.07
2023-01-31T07:37:28.531Z,68.70
2023-01-31T07:38:31.196Z,67.02
2023-01-31T07:39:32.684Z,67.92
2023-01-31T07:40:34.312Z,68.84
2023-01-31T07:41:35.835Z,69.00
2023-01-31T07:42:37.462Z,69.26
2023-01-31T07:43:39.169Z,68.55
2023-01-31T07:44:40.687Z,68.05
2023-01-31T07:45:42.892Z,68.75
2023-01-31T07:46:44.724Z,68.43
2023-01-31T07:47:46.288Z,69.00
2023-01-31T07:48:48.278Z,68.60
2023-01-31T07:49:50.650Z,69.14
2023-01-31T07:51:02.979Z,68.30
2023-01-31T07:52:04.699Z,68.91
2023-01-31T07:53:06.225Z,68.59
2023-01-31T07:54:10.980Z,68.52
2023-01-31T07:55:12.520Z,69.20
2023-01-31T07:56:16.945Z,69.25
2023-01-31T07:57:18.450Z,68.58
2023-01-31T07:58:20.062Z,68.78
2023-01-31T07:59:21.682Z,69.18
2023-01-31T08:00:41.955Z,69.02
2023-01-31T08:02:02.284Z,69.48
2023-01-31T08:03:22.979Z,69.07
2023-01-31T08:04:24.719Z,68.93
2023-01-31T08:05:26.274Z,69.59
2023-01-31T08:06:30.654Z,70.46
2023-01-31T08:07:32.197Z,69.18
2023-01-31T08:08:34.286Z,69.80
2023-01-31T08:09:36.251Z,70.16
2023-01-31T08:10:38.512Z,70.40
2023-01-31T08:11:40.111Z,69.47
2023-01-31T08:12:41.652Z,70.13
2023-01-31T08:13:43.195Z,70.48
2023-01-31T08:14:45.486Z,71.09
2023-01-31T08:15:47.065Z,70.89
2023-01-31T08:16:48.656Z,70.13
2023-01-31T08:17:50.183Z,69.73
2023-01-31T08:18:52.758Z,69.08
2023-01-31T08:19:54.300Z,69.03
2023-01-31T08:20:57.527Z,69.70
2023-01-31T08:21:59.083Z,70.13
2023-01-31T08:23:00.828Z,69.91
2023-01-31T08:24:02.471Z,69.91
2023-01-31T08:25:04.223Z,69.21
2023-01-31T08:26:10.455Z,68.98
2023-01-31T08:27:12.147Z,69.73
2023-01-31T08:28:13.746Z,70.06
2023-01-31T08:29:15.398Z,69.30
2023-01-31T08:30:17.302Z,70.00
2023-01-31T08:31:22.335Z,70.12
2023-01-31T08:32:23.953Z,69.59
2023-01-31T08:33:26.068Z,70.38
2023-01-31T08:34:28.257Z,69.41
2023-01-31T08:35:30.280Z,70.71
2023-01-31T08:36:32.143Z,69.98
2023-01-31T08:37:34.609Z,70.01
2023-01-31T08:38:36.192Z,70.62
2023-01-31T08:39:37.709Z,70.11
2023-01-31T08:40:39.309Z,69.53
2023-01-31T08:41:40.883Z,70.59
2023-01-31T08:42:42.805Z,69.55
2023-01-31T08:43:56.248Z,69.50
2023-01-31T08:44:58.850Z,69.50
2023-01-31T08:46:00.627Z,69.49
2023-01-31T08:47:02.714Z,69.82
2023-01-31T08:48:04.801Z,70.26
2023-01-31T08:49:07.394Z,69.32
2023-01-31T08:50:22.308Z,69.56
2023-01-31T08:51:29.162Z,69.98
2023-01-31T08:52:35.322Z,69.10
2023-01-31T08:53:43.602Z,70.16
2023-01-31T08:54:45.198Z,69.91
2023-01-31T08:55:46.753Z,69.19
2023-01-31T08:56:48.289Z,68.80
2023-01-31T08:57:59.330Z,68.94
2023-01-31T08:59:01.482Z,69.94
2023-01-31T09:00:03.526Z,69.17
2023-01-31T09:01:07.568Z,69.33
2023-01-31T09:02:11.150Z,69.05
2023-01-31T09:03:19.228Z,69.16
2023-01-31T09:04:20.745Z,67.83
2023-01-31T09:05:23.713Z,68.14
2023-01-31T09:06:27.618Z,67.93
2023-01-31T09:07:29.257Z,68.36
2023-01-31T09:08:31.266Z,68.79
2023-01-31T09:09:33.113Z,67.67
2023-01-31T09:10:34.811Z,68.33
2023-01-31T09:11:36.381Z,69.03
2023-01-31T09:12:38.183Z,68.07
2023-01-31T09:13:39.712Z,68.49
2023-01-31T09:14:41.343Z,67.91
2023-01-31T09:15:42.951Z,68.34
2023-01-31T09:16:46.645Z,67.76
2023-01-31T09:17:48.288Z,68.29
2023-01-31T09:18:49.825Z,67.12
2023-01-31T09:19:51.458Z,67.64
2023-01-31T09:20:53.189Z,68.11
2023-01-31T09:21:54.750Z,68.43
2023-01-31T09:22:56.318Z,66.39
2023-01-31T09:24:02.394Z,67.15
2023-01-31T09:25:04.914Z,66.66
2023-01-31T09:26:06.694Z,65.92
2023-01-31T09:27:08.372Z,66.08
2023-01-31T09:28:09.905Z,65.30
2023-01-31T09:29:11.424Z,66.72
2023-01-31T09:30:13.569Z,66.90
2023-01-31T09:31:18.217Z,66.14
2023-01-31T09:32:21.309Z,66.43
2023-01-31T09:33:23.647Z,67.00
2023-01-31T09:34:25.407Z,65.13
2023-01-31T09:35:27.203Z,65.08
2023-01-31T09:36:28.985Z,65.85
2023-01-31T09:37:31.143Z,64.92
2023-01-31T09:38:33.536Z,63.96
2023-01-31T09:39:35.088Z,63.32
2023-01-31T09:40:40.786Z,63.42
2023-01-31T09:41:48.799Z,64.84
2023-01-31T09:42:52.140Z,64.81
2023-01-31T09:44:02.551Z,64.79
2023-01-31T09:45:10.537Z,63.29
2023-01-31T09:46:18.074Z,63.46
2023-01-31T09:47:29.940Z,62.66
2023-01-31T09:48:35.680Z,63.17
2023-01-31T09:49:50.019Z,60.65
2023-01-31T09:50:56.066Z,61.23
2023-01-31T09:52:03.595Z,61.71
2023-01-31T09:53:05.197Z,61.96
2023-01-31T09:54:17.165Z,61.34
2023-01-31T09:55:29.562Z,60.56
2023-01-31T09:56:39.000Z,62.14
2023-01-31T09:58:10.671Z,61.86
2023-01-31T09:59:33.120Z,62.11
2023-01-31T10:00:57.670Z,62.11
2023-01-31T10:02:26.563Z,61.61
2023-01-31T10:03:50.073Z,63.25
2023-01-31T10:04:54.534Z,63.46
2023-01-31T10:06:24.634Z,63.41
2023-01-31T10:07:46.028Z,63.43
2023-01-31T10:08:52.511Z,62.78
2023-01-31T10:10:04.755Z,63.89
2023-01-31T10:11:13.218Z,64.21
2023-01-31T10:12:20.358Z,64.73
2023-01-31T10:13:40.533Z,63.86
2023-01-31T10:14:51.436Z,63.98
2023-01-31T10:16:00.967Z,63.84
2023-01-31T10:17:26.135Z,63.03
2023-01-31T10:18:32.724Z,63.65
2023-01-31T10:19:45.419Z,64.33
2023-01-31T10:20:58.185Z,65.68
2023-01-31T10:22:07.420Z,64.88
2023-01-31T10:23:25.295Z,64.49
2023-01-31T10:24:32.645Z,64.09
2023-01-31T10:25:44.157Z,63.83
2023-01-31T10:26:48.328Z,64.15
2023-01-31T10:27:56.462Z,64.23
2023-01-31T10:29:13.987Z,64.72
2023-01-31T10:30:25.566Z,64.77
2023-01-31T10:31:34.108Z,64.45
2023-01-31T10:32:42.325Z,64.82
2023-01-31T10:33:47.988Z,64.41
2023-01-31T10:35:16.412Z,64.46
2023-01-31T10:36:33.419Z,65.88
2023-01-31T10:37:44.547Z,66.49
2023-01-31T10:39:21.398Z,64.77
2023-01-31T10:40:31.199Z,66.75
2023-01-31T10:42:04.389Z,65.23
2023-01-31T10:43:40.767Z,64.03
2023-01-31T10:45:08.509Z,64.89
2023-01-31T10:46:12.821Z,63.63
2023-01-31T10:47:17.533Z,64.48
2023-01-31T10:48:26.886Z,63.70
2023-01-31T10:49:29.548Z,63.97
2023-01-31T10:50:52.231Z,64.19
2023-01-31T10:52:28.550Z,64.75
2023-01-31T10:54:02.302Z,63.94
2023-01-31T10:55:28.840Z,62.55
2023-01-31T10:56:48.019Z,63.20
2023-01-31T10:57:50.439Z,62.01
2023-01-31T10:58:53.229Z,61.40
2023-01-31T10:59:55.375Z,62.30
2023-01-31T11:00:58.310Z,62.14
2023-01-31T11:02:02.322Z,61.85
2023-01-31T11:03:03.925Z,61.38
2023-01-31T11:04:25.821Z,61.43
2023-01-31T11:05:30.255Z,61.51
2023-01-31T11:06:32.346Z,61.61
2023-01-31T11:07:34.593Z,62.41
2023-01-31T11:08:45.709Z,61.41
2023-01-31T11:09:54.287Z,60.82
2023-01-31T11:10:57.825Z,60.67
2023-01-31T11:12:04.930Z,61.53
2023-01-31T11:13:07.852Z,63.04
2023-01-31T11:14:18.714Z,63.35
2023-01-31T11:15:28.432Z,62.67
2023-01-31T11:16:36.845Z,63.30
2023-01-31T11:17:43.122Z,62.61
2023-01-31T11:18:50.471Z,63.90
2023-01-31T11:19:55.951Z,62.97
2023-01-31T11:20:59.842Z,63.31
2023-01-31T11:22:03.667Z,64.14
2023-01-31T11:23:07.045Z,63.55
2023-01-31T11:24:17.885Z,64.81
2023-01-31T11:25:22.345Z,64.08
2023-01-31T11:26:36.752Z,64.75
2023-01-31T11:27:40.871Z,64.67
2023-01-31T11:28:42.507Z,64.51
2023-01-31T11:29:50.812Z,65.32
2023-01-31T11:30:55.047Z,65.58
2023-01-31T11:31:59.201Z,65.32
2023-01-31T11:33:02.160Z,65.45
2023-01-31T11:34:21.804Z,65.24
2023-01-31T11:35:32.208Z,64.71
2023-01-31T11:36:42.338Z,64.93
2023-01-31T11:37:54.371Z,64.99
2023-01-31T11:38:55.971Z,64.94
2023-01-31T11:40:04.296Z,66.37
2023-01-31T11:41:30.640Z,66.75
2023-01-31T11:42:33.083Z,66.24
2023-01-31T11:43:34.767Z,66.77
2023-01-31T11:44:36.345Z,65.11
2023-01-31T11:45:38.808Z,66.69
2023-01-31T11:46:46.873Z,65.04
2023-01-31T11:47:53.758Z,66.16
2023-01-31T11:48:56.321Z,65.87
2023-01-31T11:49:58.289Z,66.89
2023-01-31T11:51:03.913Z,65.55
2023-01-31T11:52:18.636Z,66.06
2023-01-31T11:53:24.820Z,66.57
2023-01-31T11:54:30.732Z,66.01
2023-01-31T11:55:39.568Z,65.70
2023-01-31T11:56:41.248Z,64.57
2023-01-31T11:57:44.215Z,65.49
2023-01-31T11:58:48.533Z,65.57
2023-01-31T11:59:53.540Z,66.37
2023-01-31T12:01:02.378Z,67.16
2023-01-31T12:02:04.705Z,67.45
2023-01-31T12:03:13.175Z,68.49
2023-01-31T12:04:20.269Z,68.46
2023-01-31T12:05:39.135Z,69.21
2023-01-31T12:06:42.078Z,70.42
2023-01-31T12:07:53.989Z,71.93
2023-01-31T12:08:58.393Z,73.28
2023-01-31T12:09:59.972Z,73.77
2023-01-31T12:11:19.697Z,74.43
2023-01-31T12:12:27.948Z,76.30
2023-01-31T12:13:29.509Z,77.17
2023-01-31T12:14:42.438Z,75.02
2023-01-31T12:15:56.134Z,76.79
2023-01-31T12:17:01.308Z,76.27
2023-01-31T12:18:03.183Z,76.77
2023-01-31T12:19:13.575Z,76.60
2023-01-31T12:20:53.710Z,76.49
2023-01-31T12:22:40.037Z,76.18
2023-01-31T12:23:52.509Z,75.46
2023-01-31T12:25:05.745Z,75.72
2023-01-31T12:26:17.575Z,76.03
2023-01-31T12:27:39.360Z,76.04
2023-01-31T12:29:11.879Z,76.74
2023-01-31T12:30:43.031Z,74.47
2023-01-31T12:32:03.147Z,75.83
2023-01-31T12:33:13.405Z,75.97
2023-01-31T12:34:32.104Z,76.05
2023-01-31T12:35:51.725Z,75.36
2023-01-31T12:37:08.446Z,75.15
2023-01-31T12:38:40.358Z,74.69
2023-01-31T12:40:09.122Z,71.99
2023-01-31T12:41:22.945Z,73.46
2023-01-31T12:42:59.542Z,72.82
2023-01-31T12:44:29.136Z,73.05
2023-01-31T12:45:52.056Z,72.49
2023-01-31T12:47:10.171Z,73.17
2023-01-31T12:48:59.677Z,72.70
2023-01-31T12:50:11.605Z,72.58
2023-01-31T12:51:26.470Z,72.65
2023-01-31T12:52:55.655Z,71.28
2023-01-31T12:54:13.858Z,71.34
2023-01-31T12:55:41.892Z,72.82
2023-01-31T12:57:18.129Z,71.69
2023-01-31T12:58:28.369Z,71.39
2023-01-31T12:59:43.205Z,71.68
2023-01-31T13:00:52.759Z,71.25
2023-01-31T13:02:18.465Z,72.74
2023-01-31T13:03:38.977Z,72.42
2023-01-31T13:05:13.152Z,72.71
2023-01-31T13:06:33.493Z,74.18
2023-01-31T13:07:56.208Z,72.84
2023-01-31T13:09:08.932Z,73.68
2023-01-31T13:10:40.522Z,73.81
2023-01-31T13:12:03.880Z,72.82
2023-01-31T13:13:11.447Z,73.27
2023-01-31T13:14:20.042Z,73.40
2023-01-31T13:15:50.024Z,73.24
2023-01-31T13:16:55.428Z,74.73
2023-01-31T13:18:03.212Z,74.06
2023-01-31T13:19:12.317Z,74.10
2023-01-31T13:20:19.878Z,74.93
2023-01-31T13:21:27.208Z,75.93
2023-01-31T13:22:35.973Z,75.70
2023-01-31T13:23:45.187Z,75.29
2023-01-31T13:24:59.032Z,76.33
2023-01-31T13:26:11.925Z,75.24
2023-01-31T13:27:27.506Z,76.11
2023-01-31T13:28:34.007Z,74.33
2023-01-31T13:29:43.425Z,74.39
2023-01-31T13:30:52.022Z,75.31
2023-01-31T13:32:10.434Z,73.77
2023-01-31T13:33:37.301Z,70.89
2023-01-31T13:34:41.519Z,70.68
2023-01-31T13:35:45.172Z,70.76
2023-01-31T13:36:51.399Z,70.41
2023-01-31T13:37:59.976Z,70.34
2023-01-31T13:39:09.694Z,68.79
2023-01-31T13:40:23.992Z,68.99
2023-01-31T13:41:31.314Z,68.25
2023-01-31T13:42:33.292Z,67.07
2023-01-31T13:43:34.936Z,66.90
2023-01-31T13:44:36.538Z,66.84
2023-01-31T13:45:43.955Z,66.38
2023-01-31T13:46:55.323Z,67.97
2023-01-31T13:48:38.328Z,66.88
2023-01-31T13:49:53.003Z,67.33
2023-01-31T13:50:58.623Z,67.29
2023-01-31T13:52:06.243Z,67.17
2023-01-31T13:53:20.581Z,66.41
2023-01-31T13:54:29.162Z,68.17
2023-01-31T13:55:33.556Z,66.45
2023-01-31T13:56:37.790Z,65.99
2023-01-31T13:57:50.214Z,67.18
2023-01-31T13:58:54.273Z,68.40
2023-01-31T14:00:03.648Z,68.83
2023-01-31T14:01:13.294Z,68.94
2023-01-31T14:02:20.169Z,68.46
2023-01-31T14:03:21.734Z,68.52
2023-01-31T14:04:28.228Z,68.05
2023-01-31T14:05:44.995Z,69.89
2023-01-31T14:06:52.458Z,69.59
2023-01-31T14:08:32.411Z,68.16
2023-01-31T14:09:40.335Z,68.39
2023-01-31T14:10:43.371Z,68.51
2023-01-31T14:11:45.019Z,68.28
2023-01-31T14:12:46.571Z,68.14
2023-01-31T14:13:52.742Z,68.58
2023-01-31T14:14:55.949Z,68.91
2023-01-31T14:15:58.442Z,68.17
2023-01-31T14:17:00.021Z,68.51
2023-01-31T14:18:01.763Z,68.05
2023-01-31T14:19:26.385Z,69.29
2023-01-31T14:20:31.191Z,68.42
2023-01-31T14:21:32.754Z,68.34